sensor_id;sensor_type;location;lat;lon;timestamp;temperature;humidity
17687;DHT22;8962;52.538;13.266;2024-03-07T00:00:30;6.40;99.90
17687;DHT22;8962;52.538;13.266;2024-03-07T00:02:57;6.50;99.90
17687;DHT22;8962;52.538;13.266;2024-03-07T00:05:25;6.40;99.90
17687;DHT22;8962;52.538;13.266;2024-03-07T00:07:52;6.40;99.90
17687;DHT22;8962;52.538;13.266;2024-03-07T00:10:20;6.40;99.90
17687;DHT22;8962;52.538;13.266;2024-03-07T00:12:47;6.30;99.90
17687;DHT22;8962;52.538;13.266;2024-03-07T00:15:16;6.40;99.90
17687;DHT22;8962;52.538;13.266;2024-03-07T00:17:45;6.40;99.90
17687;DHT22;8962;52.538;13.266;2024-03-07T00:20:12;6.40;99.90
17687;DHT22;8962;52.538;13.266;2024-03-07T00:22:41;6.40;99.90
17687;DHT22;8962;52.538;13.266;2024-03-07T00:25:08;6.50;99.90
17687;DHT22;8962;52.538;13.266;2024-03-07T00:27:37;6.50;99.90
17687;DHT22;8962;52.538;13.266;2024-03-07T00:30:05;6.50;99.90
17687;DHT22;8962;52.538;13.266;2024-03-07T00:32:35;6.40;99.90
17687;DHT22;8962;52.538;13.266;2024-03-07T00:35:08;6.40;99.90
17687;DHT22;8962;52.538;13.266;2024-03-07T00:37:35;6.30;99.90
17687;DHT22;8962;52.538;13.266;2024-03-07T00:40:03;6.30;99.90
17687;DHT22;8962;52.538;13.266;2024-03-07T00:42:31;6.40;99.90
17687;DHT22;8962;52.538;13.266;2024-03-07T00:44:59;6.50;99.90
17687;DHT22;8962;52.538;13.266;2024-03-07T00:47:27;6.50;99.90
17687;DHT22;8962;52.538;13.266;2024-03-07T00:49:55;6.50;99.90
17687;DHT22;8962;52.538;13.266;2024-03-07T00:52:26;6.50;99.90
17687;DHT22;8962;52.538;13.266;2024-03-07T00:54:56;6.50;99.90
17687;DHT22;8962;52.538;13.266;2024-03-07T00:57:23;6.40;99.90
17687;DHT22;8962;52.538;13.266;2024-03-07T00:59:50;6.40;99.90
17687;DHT22;8962;52.538;13.266;2024-03-07T01:02:17;6.40;99.90
17687;DHT22;8962;52.538;13.266;2024-03-07T01:04:45;6.40;99.90
17687;DHT22;8962;52.538;13.266;2024-03-07T01:07:12;6.40;99.90
17687;DHT22;8962;52.538;13.266;2024-03-07T01:09:40;6.50;99.90
17687;DHT22;8962;52.538;13.266;2024-03-07T01:12:07;6.50;99.90
17687;DHT22;8962;52.538;13.266;2024-03-07T01:14:35;6.50;99.90
17687;DHT22;8962;52.538;13.266;2024-03-07T01:17:03;6.40;99.90
17687;DHT22;8962;52.538;13.266;2024-03-07T01:19:32;6.40;99.90
17687;DHT22;8962;52.538;13.266;2024-03-07T01:22:00;6.40;99.90
17687;DHT22;8962;52.538;13.266;2024-03-07T01:24:27;6.40;99.90
17687;DHT22;8962;52.538;13.266;2024-03-07T01:26:56;6.40;99.90
17687;DHT22;8962;52.538;13.266;2024-03-07T01:29:23;6.50;99.90
17687;DHT22;8962;52.538;13.266;2024-03-07T01:31:50;6.50;99.90
17687;DHT22;8962;52.538;13.266;2024-03-07T01:34:19;6.50;99.90
17687;DHT22;8962;52.538;13.266;2024-03-07T01:36:46;6.50;99.90
17687;DHT22;8962;52.538;13.266;2024-03-07T01:39:13;6.40;99.90
17687;DHT22;8962;52.538;13.266;2024-03-07T01:41:41;6.40;99.90
17687;DHT22;8962;52.538;13.266;2024-03-07T01:44:09;6.40;99.90
17687;DHT22;8962;52.538;13.266;2024-03-07T01:46:36;6.40;99.90
17687;DHT22;8962;52.538;13.266;2024-03-07T01:49:03;6.40;99.90
17687;DHT22;8962;52.538;13.266;2024-03-07T01:51:33;6.50;99.90
17687;DHT22;8962;52.538;13.266;2024-03-07T01:54:00;6.50;99.90
17687;DHT22;8962;52.538;13.266;2024-03-07T01:56:29;6.40;99.90
17687;DHT22;8962;52.538;13.266;2024-03-07T01:58:57;6.40;99.90
17687;DHT22;8962;52.538;13.266;2024-03-07T02:01:27;6.30;99.90
17687;DHT22;8962;52.538;13.266;2024-03-07T02:03:56;6.30;99.90
17687;DHT22;8962;52.538;13.266;2024-03-07T02:06:24;6.20;99.90
17687;DHT22;8962;52.538;13.266;2024-03-07T02:08:51;6.30;99.90
17687;DHT22;8962;52.538;13.266;2024-03-07T02:11:18;6.30;99.90
17687;DHT22;8962;52.538;13.266;2024-03-07T02:13:45;6.30;99.90
17687;DHT22;8962;52.538;13.266;2024-03-07T02:16:12;6.30;99.90
17687;DHT22;8962;52.538;13.266;2024-03-07T02:18:41;6.30;99.90
17687;DHT22;8962;52.538;13.266;2024-03-07T02:21:10;6.30;99.90
17687;DHT22;8962;52.538;13.266;2024-03-07T02:23:37;6.20;99.90
17687;DHT22;8962;52.538;13.266;2024-03-07T02:26:04;6.20;99.90
17687;DHT22;8962;52.538;13.266;2024-03-07T02:28:32;6.30;99.90
17687;DHT22;8962;52.538;13.266;2024-03-07T02:30:59;6.20;99.90
17687;DHT22;8962;52.538;13.266;2024-03-07T02:33:26;6.20;99.90
17687;DHT22;8962;52.538;13.266;2024-03-07T02:35:53;6.20;99.90
17687;DHT22;8962;52.538;13.266;2024-03-07T02:38:22;6.20;99.90
17687;DHT22;8962;52.538;13.266;2024-03-07T02:40:49;6.20;99.90
17687;DHT22;8962;52.538;13.266;2024-03-07T02:43:17;6.20;99.90
17687;DHT22;8962;52.538;13.266;2024-03-07T02:45:44;6.10;99.90
17687;DHT22;8962;52.538;13.266;2024-03-07T02:48:11;6.10;99.90
17687;DHT22;8962;52.538;13.266;2024-03-07T02:50:39;6.00;99.90
17687;DHT22;8962;52.538;13.266;2024-03-07T02:53:07;6.00;99.90
17687;DHT22;8962;52.538;13.266;2024-03-07T02:55:35;6.10;99.90
17687;DHT22;8962;52.538;13.266;2024-03-07T02:58:03;6.10;99.90
17687;DHT22;8962;52.538;13.266;2024-03-07T03:00:32;6.00;99.90
17687;DHT22;8962;52.538;13.266;2024-03-07T03:02:59;6.00;99.90
17687;DHT22;8962;52.538;13.266;2024-03-07T03:05:26;5.90;99.90
17687;DHT22;8962;52.538;13.266;2024-03-07T03:07:53;5.90;99.90
17687;DHT22;8962;52.538;13.266;2024-03-07T03:10:21;5.80;99.90
17687;DHT22;8962;52.538;13.266;2024-03-07T03:12:54;5.90;99.90
17687;DHT22;8962;52.538;13.266;2024-03-07T03:15:23;5.80;99.90
17687;DHT22;8962;52.538;13.266;2024-03-07T03:17:50;5.80;99.90
17687;DHT22;8962;52.538;13.266;2024-03-07T03:20:18;5.70;99.90
17687;DHT22;8962;52.538;13.266;2024-03-07T03:22:52;5.80;99.90
17687;DHT22;8962;52.538;13.266;2024-03-07T03:25:19;5.70;99.90
17687;DHT22;8962;52.538;13.266;2024-03-07T03:27:49;5.70;99.90
17687;DHT22;8962;52.538;13.266;2024-03-07T03:30:17;5.60;99.90
17687;DHT22;8962;52.538;13.266;2024-03-07T03:32:45;5.50;99.90
17687;DHT22;8962;52.538;13.266;2024-03-07T03:35:14;5.50;99.90
17687;DHT22;8962;52.538;13.266;2024-03-07T03:37:41;5.50;99.90
17687;DHT22;8962;52.538;13.266;2024-03-07T03:40:09;5.60;99.90
17687;DHT22;8962;52.538;13.266;2024-03-07T03:42:37;5.60;99.90
17687;DHT22;8962;52.538;13.266;2024-03-07T03:45:05;5.60;99.90
17687;DHT22;8962;52.538;13.266;2024-03-07T03:47:36;5.60;99.90
17687;DHT22;8962;52.538;13.266;2024-03-07T03:50:04;5.70;99.90
17687;DHT22;8962;52.538;13.266;2024-03-07T03:52:32;5.70;99.90
17687;DHT22;8962;52.538;13.266;2024-03-07T03:55:01;5.60;99.90
17687;DHT22;8962;52.538;13.266;2024-03-07T03:57:29;5.70;99.90
17687;DHT22;8962;52.538;13.266;2024-03-07T03:59:56;5.70;99.90
17687;DHT22;8962;52.538;13.266;2024-03-07T04:02:23;5.80;99.90
17687;DHT22;8962;52.538;13.266;2024-03-07T04:04:52;5.70;99.90
17687;DHT22;8962;52.538;13.266;2024-03-07T04:07:20;5.80;99.90
17687;DHT22;8962;52.538;13.266;2024-03-07T04:09:47;5.70;99.90
17687;DHT22;8962;52.538;13.266;2024-03-07T04:12:14;5.70;99.90
17687;DHT22;8962;52.538;13.266;2024-03-07T04:14:42;5.80;99.90
17687;DHT22;8962;52.538;13.266;2024-03-07T04:17:09;6.00;99.90
17687;DHT22;8962;52.538;13.266;2024-03-07T04:19:38;5.90;99.90
17687;DHT22;8962;52.538;13.266;2024-03-07T04:22:08;5.90;99.90
17687;DHT22;8962;52.538;13.266;2024-03-07T04:24:35;5.80;99.90
17687;DHT22;8962;52.538;13.266;2024-03-07T04:27:03;5.90;99.90
17687;DHT22;8962;52.538;13.266;2024-03-07T04:29:30;5.90;99.90
17687;DHT22;8962;52.538;13.266;2024-03-07T04:31:58;5.80;99.90
17687;DHT22;8962;52.538;13.266;2024-03-07T04:34:25;5.70;99.90
17687;DHT22;8962;52.538;13.266;2024-03-07T04:36:53;5.70;99.90
17687;DHT22;8962;52.538;13.266;2024-03-07T04:39:22;5.70;99.90
17687;DHT22;8962;52.538;13.266;2024-03-07T04:41:56;5.50;99.90
17687;DHT22;8962;52.538;13.266;2024-03-07T04:44:23;5.30;99.90
17687;DHT22;8962;52.538;13.266;2024-03-07T04:46:50;5.20;99.90
17687;DHT22;8962;52.538;13.266;2024-03-07T04:49:21;5.20;99.90
17687;DHT22;8962;52.538;13.266;2024-03-07T04:51:50;5.20;99.90
17687;DHT22;8962;52.538;13.266;2024-03-07T04:54:17;5.30;99.90
17687;DHT22;8962;52.538;13.266;2024-03-07T04:56:47;5.20;99.90
17687;DHT22;8962;52.538;13.266;2024-03-07T04:59:15;5.20;99.90
17687;DHT22;8962;52.538;13.266;2024-03-07T05:01:43;5.10;99.90
17687;DHT22;8962;52.538;13.266;2024-03-07T05:04:12;5.10;99.90
17687;DHT22;8962;52.538;13.266;2024-03-07T05:06:39;5.00;99.90
17687;DHT22;8962;52.538;13.266;2024-03-07T05:09:07;5.00;99.90
17687;DHT22;8962;52.538;13.266;2024-03-07T05:11:36;4.80;99.90
17687;DHT22;8962;52.538;13.266;2024-03-07T05:14:05;4.60;99.90
17687;DHT22;8962;52.538;13.266;2024-03-07T05:16:33;4.60;99.90
17687;DHT22;8962;52.538;13.266;2024-03-07T05:19:01;4.70;99.90
17687;DHT22;8962;52.538;13.266;2024-03-07T05:21:28;4.60;99.90
17687;DHT22;8962;52.538;13.266;2024-03-07T05:24:04;4.60;99.90
17687;DHT22;8962;52.538;13.266;2024-03-07T05:26:31;4.60;99.90
17687;DHT22;8962;52.538;13.266;2024-03-07T05:29:01;4.70;99.90
17687;DHT22;8962;52.538;13.266;2024-03-07T05:31:32;4.70;99.90
17687;DHT22;8962;52.538;13.266;2024-03-07T05:34:01;4.60;99.90
17687;DHT22;8962;52.538;13.266;2024-03-07T05:36:30;4.60;99.90
17687;DHT22;8962;52.538;13.266;2024-03-07T05:38:57;4.70;99.90
17687;DHT22;8962;52.538;13.266;2024-03-07T05:41:25;4.80;99.90
17687;DHT22;8962;52.538;13.266;2024-03-07T05:43:55;4.60;99.90
17687;DHT22;8962;52.538;13.266;2024-03-07T05:46:23;4.70;99.90
17687;DHT22;8962;52.538;13.266;2024-03-07T05:48:51;4.70;99.90
17687;DHT22;8962;52.538;13.266;2024-03-07T05:51:22;4.60;99.90
17687;DHT22;8962;52.538;13.266;2024-03-07T05:53:50;4.50;99.90
17687;DHT22;8962;52.538;13.266;2024-03-07T05:56:17;4.50;99.90
17687;DHT22;8962;52.538;13.266;2024-03-07T05:58:45;4.50;99.90
17687;DHT22;8962;52.538;13.266;2024-03-07T06:01:12;4.40;99.90
17687;DHT22;8962;52.538;13.266;2024-03-07T06:03:40;4.40;99.90
17687;DHT22;8962;52.538;13.266;2024-03-07T06:06:08;4.20;99.90
17687;DHT22;8962;52.538;13.266;2024-03-07T06:08:37;4.30;99.90
17687;DHT22;8962;52.538;13.266;2024-03-07T06:11:08;4.20;99.90
17687;DHT22;8962;52.538;13.266;2024-03-07T06:13:35;4.30;99.90
17687;DHT22;8962;52.538;13.266;2024-03-07T06:16:03;4.30;99.90
17687;DHT22;8962;52.538;13.266;2024-03-07T06:18:34;4.20;99.90
17687;DHT22;8962;52.538;13.266;2024-03-07T06:21:01;4.20;99.90
17687;DHT22;8962;52.538;13.266;2024-03-07T06:23:31;4.30;99.90
17687;DHT22;8962;52.538;13.266;2024-03-07T06:25:59;4.20;99.90
17687;DHT22;8962;52.538;13.266;2024-03-07T06:28:41;4.20;99.90
17687;DHT22;8962;52.538;13.266;2024-03-07T06:31:08;4.40;99.90
17687;DHT22;8962;52.538;13.266;2024-03-07T06:33:36;4.30;99.90
17687;DHT22;8962;52.538;13.266;2024-03-07T06:36:03;4.40;99.90
17687;DHT22;8962;52.538;13.266;2024-03-07T06:38:32;4.30;99.90
17687;DHT22;8962;52.538;13.266;2024-03-07T06:40:59;4.20;99.90
17687;DHT22;8962;52.538;13.266;2024-03-07T06:43:26;4.40;99.90
17687;DHT22;8962;52.538;13.266;2024-03-07T06:45:55;4.30;99.90
17687;DHT22;8962;52.538;13.266;2024-03-07T06:48:22;4.30;99.90
17687;DHT22;8962;52.538;13.266;2024-03-07T06:50:49;4.30;99.90
17687;DHT22;8962;52.538;13.266;2024-03-07T06:53:16;4.10;99.90
17687;DHT22;8962;52.538;13.266;2024-03-07T06:55:47;4.30;99.90
17687;DHT22;8962;52.538;13.266;2024-03-07T06:58:14;4.50;99.90
17687;DHT22;8962;52.538;13.266;2024-03-07T07:00:48;4.50;99.90
17687;DHT22;8962;52.538;13.266;2024-03-07T07:03:17;4.60;99.90
17687;DHT22;8962;52.538;13.266;2024-03-07T07:05:45;4.60;99.90
17687;DHT22;8962;52.538;13.266;2024-03-07T07:08:13;4.70;99.90
17687;DHT22;8962;52.538;13.266;2024-03-07T07:10:40;4.60;99.90
17687;DHT22;8962;52.538;13.266;2024-03-07T07:13:09;4.70;99.90
17687;DHT22;8962;52.538;13.266;2024-03-07T07:15:37;4.70;99.90
17687;DHT22;8962;52.538;13.266;2024-03-07T07:18:14;4.80;99.90
17687;DHT22;8962;52.538;13.266;2024-03-07T07:20:49;4.90;99.90
17687;DHT22;8962;52.538;13.266;2024-03-07T07:23:17;4.80;99.90
17687;DHT22;8962;52.538;13.266;2024-03-07T07:25:45;4.80;99.90
17687;DHT22;8962;52.538;13.266;2024-03-07T07:28:14;4.80;99.90
17687;DHT22;8962;52.538;13.266;2024-03-07T07:30:42;4.80;99.90
17687;DHT22;8962;52.538;13.266;2024-03-07T07:33:09;4.80;99.90
17687;DHT22;8962;52.538;13.266;2024-03-07T07:35:36;4.80;99.90
17687;DHT22;8962;52.538;13.266;2024-03-07T07:38:04;4.90;99.90
17687;DHT22;8962;52.538;13.266;2024-03-07T07:40:32;5.00;99.90
17687;DHT22;8962;52.538;13.266;2024-03-07T07:43:01;5.00;99.90
17687;DHT22;8962;52.538;13.266;2024-03-07T07:45:31;5.10;99.90
17687;DHT22;8962;52.538;13.266;2024-03-07T07:48:01;5.10;99.90
17687;DHT22;8962;52.538;13.266;2024-03-07T07:50:28;5.10;99.90
17687;DHT22;8962;52.538;13.266;2024-03-07T07:52:57;5.10;99.90
17687;DHT22;8962;52.538;13.266;2024-03-07T07:55:26;5.20;99.90
17687;DHT22;8962;52.538;13.266;2024-03-07T07:57:55;5.20;99.90
17687;DHT22;8962;52.538;13.266;2024-03-07T08:00:23;5.30;99.90
17687;DHT22;8962;52.538;13.266;2024-03-07T08:02:56;5.30;99.90
17687;DHT22;8962;52.538;13.266;2024-03-07T08:05:24;5.40;99.90
17687;DHT22;8962;52.538;13.266;2024-03-07T08:07:52;5.70;99.90
17687;DHT22;8962;52.538;13.266;2024-03-07T08:10:20;5.80;99.90
17687;DHT22;8962;52.538;13.266;2024-03-07T08:12:49;5.90;99.90
17687;DHT22;8962;52.538;13.266;2024-03-07T08:15:16;6.00;99.90
17687;DHT22;8962;52.538;13.266;2024-03-07T08:17:44;6.00;99.90
17687;DHT22;8962;52.538;13.266;2024-03-07T08:20:15;5.90;99.90
17687;DHT22;8962;52.538;13.266;2024-03-07T08:22:44;6.00;99.90
17687;DHT22;8962;52.538;13.266;2024-03-07T08:25:12;6.10;99.90
17687;DHT22;8962;52.538;13.266;2024-03-07T08:27:41;6.00;99.90
17687;DHT22;8962;52.538;13.266;2024-03-07T08:30:09;6.00;99.90
17687;DHT22;8962;52.538;13.266;2024-03-07T08:32:39;6.10;99.90
17687;DHT22;8962;52.538;13.266;2024-03-07T08:35:07;6.20;99.90
17687;DHT22;8962;52.538;13.266;2024-03-07T08:37:37;6.20;99.90
17687;DHT22;8962;52.538;13.266;2024-03-07T08:40:05;6.60;99.90
17687;DHT22;8962;52.538;13.266;2024-03-07T08:42:33;6.70;99.90
17687;DHT22;8962;52.538;13.266;2024-03-07T08:45:01;6.80;99.90
17687;DHT22;8962;52.538;13.266;2024-03-07T08:47:30;7.00;99.90
17687;DHT22;8962;52.538;13.266;2024-03-07T08:49:58;6.80;99.90
17687;DHT22;8962;52.538;13.266;2024-03-07T08:52:25;6.80;99.90
17687;DHT22;8962;52.538;13.266;2024-03-07T08:54:55;6.80;99.90
17687;DHT22;8962;52.538;13.266;2024-03-07T08:57:23;6.90;99.90
17687;DHT22;8962;52.538;13.266;2024-03-07T08:59:50;7.10;99.90
17687;DHT22;8962;52.538;13.266;2024-03-07T09:02:17;7.20;99.90
17687;DHT22;8962;52.538;13.266;2024-03-07T09:04:44;7.10;99.90
17687;DHT22;8962;52.538;13.266;2024-03-07T09:07:13;7.20;99.90
17687;DHT22;8962;52.538;13.266;2024-03-07T09:09:40;7.40;99.90
17687;DHT22;8962;52.538;13.266;2024-03-07T09:12:10;7.60;99.90
17687;DHT22;8962;52.538;13.266;2024-03-07T09:14:37;7.60;99.90
17687;DHT22;8962;52.538;13.266;2024-03-07T09:17:05;7.40;99.90
17687;DHT22;8962;52.538;13.266;2024-03-07T09:19:32;7.50;99.90
17687;DHT22;8962;52.538;13.266;2024-03-07T09:22:00;7.50;99.90
17687;DHT22;8962;52.538;13.266;2024-03-07T09:24:30;7.60;99.90
17687;DHT22;8962;52.538;13.266;2024-03-07T09:26:57;7.60;99.90
17687;DHT22;8962;52.538;13.266;2024-03-07T09:29:26;7.40;99.90
17687;DHT22;8962;52.538;13.266;2024-03-07T09:31:53;7.60;99.90
17687;DHT22;8962;52.538;13.266;2024-03-07T09:34:21;7.60;99.90
17687;DHT22;8962;52.538;13.266;2024-03-07T09:36:48;7.80;99.90
17687;DHT22;8962;52.538;13.266;2024-03-07T09:39:16;8.00;99.90
17687;DHT22;8962;52.538;13.266;2024-03-07T09:41:43;8.20;99.70
17687;DHT22;8962;52.538;13.266;2024-03-07T09:44:12;8.20;99.40
17687;DHT22;8962;52.538;13.266;2024-03-07T09:46:42;7.90;97.70
17687;DHT22;8962;52.538;13.266;2024-03-07T09:49:12;8.00;97.70
17687;DHT22;8962;52.538;13.266;2024-03-07T09:51:40;8.00;97.50
17687;DHT22;8962;52.538;13.266;2024-03-07T09:54:08;8.10;97.20
17687;DHT22;8962;52.538;13.266;2024-03-07T09:56:36;8.20;96.80
17687;DHT22;8962;52.538;13.266;2024-03-07T09:59:04;8.20;95.30
17687;DHT22;8962;52.538;13.266;2024-03-07T10:01:33;8.20;95.00
17687;DHT22;8962;52.538;13.266;2024-03-07T10:07:22;8.40;96.00
17687;DHT22;8962;52.538;13.266;2024-03-07T10:09:49;8.40;95.20
17687;DHT22;8962;52.538;13.266;2024-03-07T10:12:18;8.40;95.10
17687;DHT22;8962;52.538;13.266;2024-03-07T10:14:48;8.20;96.10
17687;DHT22;8962;52.538;13.266;2024-03-07T10:17:17;8.40;95.00
17687;DHT22;8962;52.538;13.266;2024-03-07T10:19:46;8.30;94.00
17687;DHT22;8962;52.538;13.266;2024-03-07T10:22:16;8.30;93.20
17687;DHT22;8962;52.538;13.266;2024-03-07T10:24:50;8.40;93.40
17687;DHT22;8962;52.538;13.266;2024-03-07T10:27:19;8.40;93.20
17687;DHT22;8962;52.538;13.266;2024-03-07T10:29:47;8.40;92.50
17687;DHT22;8962;52.538;13.266;2024-03-07T10:32:19;8.40;93.90
17687;DHT22;8962;52.538;13.266;2024-03-07T10:34:46;8.50;92.30
17687;DHT22;8962;52.538;13.266;2024-03-07T10:37:14;8.70;93.50
17687;DHT22;8962;52.538;13.266;2024-03-07T10:39:44;8.60;91.20
17687;DHT22;8962;52.538;13.266;2024-03-07T10:42:16;8.30;92.10
17687;DHT22;8962;52.538;13.266;2024-03-07T10:44:44;8.50;92.20
17687;DHT22;8962;52.538;13.266;2024-03-07T10:47:15;8.30;91.90
17687;DHT22;8962;52.538;13.266;2024-03-07T10:49:53;8.40;91.10
17687;DHT22;8962;52.538;13.266;2024-03-07T10:52:33;8.40;88.20
17687;DHT22;8962;52.538;13.266;2024-03-07T10:55:09;8.40;89.60
17687;DHT22;8962;52.538;13.266;2024-03-07T10:57:50;8.50;86.90
17687;DHT22;8962;52.538;13.266;2024-03-07T11:00:19;8.60;86.30
17687;DHT22;8962;52.538;13.266;2024-03-07T11:02:56;8.70;86.50
17687;DHT22;8962;52.538;13.266;2024-03-07T11:05:25;8.60;86.40
17687;DHT22;8962;52.538;13.266;2024-03-07T11:07:57;8.60;84.70
17687;DHT22;8962;52.538;13.266;2024-03-07T11:10:25;8.70;84.10
17687;DHT22;8962;52.538;13.266;2024-03-07T11:12:55;8.40;84.20
17687;DHT22;8962;52.538;13.266;2024-03-07T11:15:25;8.60;86.90
17687;DHT22;8962;52.538;13.266;2024-03-07T11:17:54;8.70;83.40
17687;DHT22;8962;52.538;13.266;2024-03-07T11:20:23;8.60;82.80
17687;DHT22;8962;52.538;13.266;2024-03-07T11:22:50;8.60;84.90
17687;DHT22;8962;52.538;13.266;2024-03-07T11:25:20;8.70;82.40
17687;DHT22;8962;52.538;13.266;2024-03-07T11:27:57;8.90;82.40
17687;DHT22;8962;52.538;13.266;2024-03-07T11:30:25;9.50;77.30
17687;DHT22;8962;52.538;13.266;2024-03-07T11:32:54;10.60;66.30
17687;DHT22;8962;52.538;13.266;2024-03-07T11:35:31;11.30;55.30
17687;DHT22;8962;52.538;13.266;2024-03-07T11:38:01;12.00;47.20
17687;DHT22;8962;52.538;13.266;2024-03-07T11:40:46;12.70;41.80
17687;DHT22;8962;52.538;13.266;2024-03-07T11:43:18;13.10;38.40
17687;DHT22;8962;52.538;13.266;2024-03-07T11:45:45;13.50;35.20
17687;DHT22;8962;52.538;13.266;2024-03-07T11:48:17;13.50;32.30
17687;DHT22;8962;52.538;13.266;2024-03-07T11:50:46;13.90;32.50
17687;DHT22;8962;52.538;13.266;2024-03-07T11:53:14;14.40;28.90
17687;DHT22;8962;52.538;13.266;2024-03-07T11:55:43;14.60;27.70
17687;DHT22;8962;52.538;13.266;2024-03-07T11:58:12;14.70;24.70
17687;DHT22;8962;52.538;13.266;2024-03-07T12:00:43;14.90;24.90
17687;DHT22;8962;52.538;13.266;2024-03-07T12:03:13;14.10;25.10
17687;DHT22;8962;52.538;13.266;2024-03-07T12:05:43;14.10;25.00
17687;DHT22;8962;52.538;13.266;2024-03-07T12:08:16;13.90;25.10
17687;DHT22;8962;52.538;13.266;2024-03-07T12:10:50;14.10;25.90
17687;DHT22;8962;52.538;13.266;2024-03-07T12:13:22;14.90;25.10
17687;DHT22;8962;52.538;13.266;2024-03-07T12:15:52;15.40;21.80
17687;DHT22;8962;52.538;13.266;2024-03-07T12:18:22;14.70;21.70
17687;DHT22;8962;52.538;13.266;2024-03-07T12:20:53;15.10;21.60
17687;DHT22;8962;52.538;13.266;2024-03-07T12:23:22;15.30;19.60
17687;DHT22;8962;52.538;13.266;2024-03-07T12:25:59;15.30;19.40
17687;DHT22;8962;52.538;13.266;2024-03-07T12:28:27;15.80;20.00
17687;DHT22;8962;52.538;13.266;2024-03-07T12:31:00;16.10;18.30
17687;DHT22;8962;52.538;13.266;2024-03-07T12:33:29;16.00;18.30
17687;DHT22;8962;52.538;13.266;2024-03-07T12:36:02;16.10;18.00
17687;DHT22;8962;52.538;13.266;2024-03-07T12:38:33;16.80;17.10
17687;DHT22;8962;52.538;13.266;2024-03-07T12:41:02;16.10;16.40
17687;DHT22;8962;52.538;13.266;2024-03-07T12:43:33;15.40;17.60
17687;DHT22;8962;52.538;13.266;2024-03-07T12:46:01;16.50;18.00
17687;DHT22;8962;52.538;13.266;2024-03-07T12:48:31;16.20;17.80
17687;DHT22;8962;52.538;13.266;2024-03-07T12:50:59;16.80;17.00
17687;DHT22;8962;52.538;13.266;2024-03-07T12:53:26;16.10;19.10
17687;DHT22;8962;52.538;13.266;2024-03-07T12:55:55;17.00;17.30
17687;DHT22;8962;52.538;13.266;2024-03-07T12:58:23;17.40;14.90
17687;DHT22;8962;52.538;13.266;2024-03-07T13:00:51;17.50;14.50
17687;DHT22;8962;52.538;13.266;2024-03-07T13:03:22;17.00;14.60
17687;DHT22;8962;52.538;13.266;2024-03-07T13:05:54;17.10;13.10
17687;DHT22;8962;52.538;13.266;2024-03-07T13:08:21;17.10;13.20
17687;DHT22;8962;52.538;13.266;2024-03-07T13:10:52;17.80;12.70
17687;DHT22;8962;52.538;13.266;2024-03-07T13:13:21;17.60;11.30
17687;DHT22;8962;52.538;13.266;2024-03-07T13:15:48;17.30;10.90
17687;DHT22;8962;52.538;13.266;2024-03-07T13:18:17;16.70;11.40
17687;DHT22;8962;52.538;13.266;2024-03-07T13:20:45;16.40;11.70
17687;DHT22;8962;52.538;13.266;2024-03-07T13:23:14;17.10;11.80
17687;DHT22;8962;52.538;13.266;2024-03-07T13:25:41;17.10;11.40
17687;DHT22;8962;52.538;13.266;2024-03-07T13:28:12;17.10;12.00
17687;DHT22;8962;52.538;13.266;2024-03-07T13:30:43;16.40;11.50
17687;DHT22;8962;52.538;13.266;2024-03-07T13:33:14;16.30;12.60
17687;DHT22;8962;52.538;13.266;2024-03-07T13:35:41;14.50;14.40
17687;DHT22;8962;52.538;13.266;2024-03-07T13:38:10;16.10;15.20
17687;DHT22;8962;52.538;13.266;2024-03-07T13:40:40;16.90;12.40
17687;DHT22;8962;52.538;13.266;2024-03-07T13:43:07;18.00;12.00
17687;DHT22;8962;52.538;13.266;2024-03-07T13:45:35;17.20;10.70
17687;DHT22;8962;52.538;13.266;2024-03-07T13:48:07;17.30;10.30
17687;DHT22;8962;52.538;13.266;2024-03-07T13:50:40;17.30;9.50
17687;DHT22;8962;52.538;13.266;2024-03-07T13:53:07;17.50;10.00
17687;DHT22;8962;52.538;13.266;2024-03-07T13:55:59;17.30;9.80
17687;DHT22;8962;52.538;13.266;2024-03-07T13:58:56;17.40;10.10
17687;DHT22;8962;52.538;13.266;2024-03-07T14:01:35;16.80;10.90
17687;DHT22;8962;52.538;13.266;2024-03-07T14:04:39;17.90;10.20
17687;DHT22;8962;52.538;13.266;2024-03-07T14:07:27;18.60;7.90
17687;DHT22;8962;52.538;13.266;2024-03-07T14:10:23;17.90;8.20
17687;DHT22;8962;52.538;13.266;2024-03-07T14:13:18;18.00;8.90
17687;DHT22;8962;52.538;13.266;2024-03-07T14:22:18;16.90;8.70
17687;DHT22;8962;52.538;13.266;2024-03-07T14:25:28;16.90;9.20
17687;DHT22;8962;52.538;13.266;2024-03-07T14:28:17;16.10;12.20
17687;DHT22;8962;52.538;13.266;2024-03-07T14:30:55;16.30;11.50
17687;DHT22;8962;52.538;13.266;2024-03-07T14:33:27;15.80;11.70
17687;DHT22;8962;52.538;13.266;2024-03-07T14:36:00;15.30;13.10
17687;DHT22;8962;52.538;13.266;2024-03-07T14:38:47;14.40;14.40
17687;DHT22;8962;52.538;13.266;2024-03-07T14:41:18;12.90;15.10
17687;DHT22;8962;52.538;13.266;2024-03-07T14:43:46;12.10;16.80
17687;DHT22;8962;52.538;13.266;2024-03-07T14:46:15;11.20;18.30
17687;DHT22;8962;52.538;13.266;2024-03-07T14:48:43;10.70;20.20
17687;DHT22;8962;52.538;13.266;2024-03-07T14:51:11;10.30;20.60
17687;DHT22;8962;52.538;13.266;2024-03-07T14:53:40;9.80;22.30
17687;DHT22;8962;52.538;13.266;2024-03-07T14:56:08;9.50;23.40
17687;DHT22;8962;52.538;13.266;2024-03-07T14:58:36;9.60;24.60
17687;DHT22;8962;52.538;13.266;2024-03-07T15:01:07;9.70;25.30
17687;DHT22;8962;52.538;13.266;2024-03-07T15:03:34;9.80;27.00
17687;DHT22;8962;52.538;13.266;2024-03-07T15:06:01;9.60;26.00
17687;DHT22;8962;52.538;13.266;2024-03-07T15:08:29;9.40;26.40
17687;DHT22;8962;52.538;13.266;2024-03-07T15:11:02;9.20;26.70
17687;DHT22;8962;52.538;13.266;2024-03-07T15:13:35;9.20;27.90
17687;DHT22;8962;52.538;13.266;2024-03-07T15:16:05;9.20;27.30
17687;DHT22;8962;52.538;13.266;2024-03-07T15:18:33;9.20;27.10
17687;DHT22;8962;52.538;13.266;2024-03-07T15:21:00;9.10;27.40
17687;DHT22;8962;52.538;13.266;2024-03-07T15:23:28;9.10;28.30
17687;DHT22;8962;52.538;13.266;2024-03-07T15:25:55;9.00;28.40
17687;DHT22;8962;52.538;13.266;2024-03-07T15:28:22;8.90;29.30
17687;DHT22;8962;52.538;13.266;2024-03-07T15:30:49;8.90;30.40
17687;DHT22;8962;52.538;13.266;2024-03-07T15:33:18;8.80;31.40
17687;DHT22;8962;52.538;13.266;2024-03-07T15:35:48;8.70;32.40
17687;DHT22;8962;52.538;13.266;2024-03-07T15:38:15;8.70;33.70
17687;DHT22;8962;52.538;13.266;2024-03-07T15:40:44;8.70;34.50
17687;DHT22;8962;52.538;13.266;2024-03-07T15:43:12;8.60;36.50
17687;DHT22;8962;52.538;13.266;2024-03-07T15:45:40;8.50;38.10
17687;DHT22;8962;52.538;13.266;2024-03-07T15:48:07;8.50;38.60
17687;DHT22;8962;52.538;13.266;2024-03-07T15:50:37;8.40;39.60
17687;DHT22;8962;52.538;13.266;2024-03-07T15:53:04;8.40;40.00
17687;DHT22;8962;52.538;13.266;2024-03-07T15:55:32;8.40;41.10
17687;DHT22;8962;52.538;13.266;2024-03-07T15:58:01;8.50;42.20
17687;DHT22;8962;52.538;13.266;2024-03-07T16:00:30;8.40;43.30
17687;DHT22;8962;52.538;13.266;2024-03-07T16:03:00;8.40;45.60
17687;DHT22;8962;52.538;13.266;2024-03-07T16:05:30;8.30;47.40